createdAt,value
2018-09-22T00:00:44.592Z,74.10
2018-09-22T00:03:12.833Z,74.50
2018-09-22T00:05:40.980Z,74.70
2018-09-22T00:08:09.142Z,74.80
2018-09-22T00:10:37.318Z,75.10
2018-09-22T00:13:05.474Z,75.30
2018-09-22T00:15:33.609Z,75.60
2018-09-22T00:18:01.800Z,75.90
2018-09-22T00:20:30.019Z,75.60
2018-09-22T00:22:58.192Z,76.00
2018-09-22T00:25:26.366Z,76.00
2018-09-22T00:27:54.504Z,76.90
2018-09-22T00:30:22.808Z,76.30
2018-09-22T00:32:50.960Z,75.80
2018-09-22T00:35:19.069Z,75.30
2018-09-22T00:37:47.223Z,75.40
2018-09-22T00:40:15.367Z,75.10
2018-09-22T00:42:43.490Z,75.40
2018-09-22T00:45:11.776Z,75.10
2018-09-22T00:47:39.904Z,75.30
2018-09-22T00:50:08.095Z,75.60
2018-09-22T00:52:36.494Z,75.60
2018-09-22T00:55:05.034Z,75.40
2018-09-22T00:57:33.308Z,76.10
2018-09-22T01:00:01.471Z,76.50
2018-09-22T01:02:29.910Z,76.40
2018-09-22T01:04:58.056Z,76.80
2018-09-22T01:07:26.236Z,76.90
2018-09-22T01:09:54.338Z,77.20
2018-09-22T01:12:22.493Z,77.50
2018-09-22T01:14:50.630Z,77.30
2018-09-22T01:17:18.770Z,77.40
2018-09-22T01:19:46.964Z,77.40
2018-09-22T01:22:15.116Z,78.10
2018-09-22T01:24:43.348Z,76.40
2018-09-22T01:27:11.530Z,76.30
2018-09-22T01:29:39.695Z,76.00
2018-09-22T01:32:07.858Z,75.30
2018-09-22T01:34:35.992Z,75.50
2018-09-22T01:37:04.150Z,75.30
2018-09-22T01:39:33.172Z,74.30
2018-09-22T01:42:01.390Z,73.30
2018-09-22T01:44:29.556Z,73.80
2018-09-22T01:46:57.787Z,73.30
2018-09-22T01:49:26.134Z,73.70
2018-09-22T01:51:54.250Z,73.10
2018-09-22T01:54:22.388Z,73.20
2018-09-22T01:56:50.518Z,73.20
2018-09-22T01:59:18.690Z,73.70
2018-09-22T02:01:46.823Z,74.10
2018-09-22T02:04:15.205Z,74.60
2018-09-22T02:06:43.331Z,75.00
2018-09-22T02:09:11.802Z,75.30
2018-09-22T02:11:40.036Z,76.30
2018-09-22T02:14:08.188Z,76.90
2018-09-22T02:16:36.295Z,77.30
2018-09-22T02:19:04.593Z,77.80
2018-09-22T02:21:32.776Z,78.60
2018-09-22T02:24:00.989Z,79.10
2018-09-22T02:26:29.125Z,79.50
2018-09-22T02:28:57.270Z,80.00
2018-09-22T02:31:25.396Z,78.90
2018-09-22T02:33:53.571Z,79.40
2018-09-22T02:36:21.741Z,78.30
2018-09-22T02:38:49.886Z,78.40
2018-09-22T02:41:18.019Z,78.60
2018-09-22T02:43:46.211Z,78.30
2018-09-22T02:46:14.460Z,78.80
2018-09-22T02:48:42.623Z,78.80
2018-09-22T02:51:10.747Z,79.00
2018-09-22T02:53:39.044Z,79.10
2018-09-22T02:56:07.206Z,79.00
2018-09-22T02:58:35.331Z,78.60
2018-09-22T03:01:03.483Z,79.00
2018-09-22T03:03:31.631Z,78.30
2018-09-22T03:05:59.774Z,77.50
2018-09-22T03:08:27.924Z,77.60
2018-09-22T03:10:56.096Z,77.50
2018-09-22T03:13:24.227Z,77.60
2018-09-22T03:15:52.334Z,77.90
2018-09-22T03:18:20.650Z,79.10
2018-09-22T03:20:48.770Z,78.80
2018-09-22T03:23:16.872Z,79.40
2018-09-22T03:25:45.913Z,79.60
2018-09-22T03:28:14.041Z,79.90
2018-09-22T03:30:42.251Z,79.70
2018-09-22T03:33:10.413Z,79.80
2018-09-22T03:35:38.587Z,79.70
2018-09-22T03:38:13.269Z,79.30
2018-09-22T03:40:41.490Z,79.40
2018-09-22T03:43:09.618Z,79.40
2018-09-22T03:45:37.832Z,78.90
2018-09-22T03:48:06.341Z,78.70
2018-09-22T03:50:34.489Z,78.80
2018-09-22T03:53:02.701Z,78.00
2018-09-22T03:55:30.862Z,78.00
2018-09-22T03:57:59.028Z,78.30
2018-09-22T04:00:27.196Z,78.00
2018-09-22T04:02:55.303Z,78.20
2018-09-22T04:05:23.447Z,78.90
2018-09-22T04:07:51.574Z,78.30
2018-09-22T04:10:19.739Z,78.90
2018-09-22T04:12:47.856Z,78.30
2018-09-22T04:15:16.019Z,78.60
2018-09-22T04:17:44.158Z,78.80
2018-09-22T04:20:12.274Z,79.00
2018-09-22T04:22:40.408Z,78.90
2018-09-22T04:25:08.639Z,79.20
2018-09-22T04:27:36.763Z,79.50
2018-09-22T04:30:05.286Z,79.70
2018-09-22T04:32:33.377Z,79.90
2018-09-22T04:35:01.548Z,80.00
2018-09-22T04:37:29.699Z,80.10
2018-09-22T04:39:57.839Z,80.20
2018-09-22T04:42:26.002Z,80.50
2018-09-22T04:44:54.217Z,80.60
2018-09-22T04:47:22.357Z,80.40
2018-09-22T04:49:50.490Z,80.30
2018-09-22T04:52:18.628Z,80.10
2018-09-22T04:54:46.768Z,79.70
2018-09-22T04:57:14.882Z,79.40
2018-09-22T04:59:43.025Z,79.80
2018-09-22T05:02:11.195Z,79.70
2018-09-22T05:04:39.419Z,79.40
2018-09-22T05:07:07.637Z,78.60
2018-09-22T05:09:35.787Z,78.30
2018-09-22T05:12:03.950Z,78.20
2018-09-22T05:14:32.149Z,78.20
2018-09-22T05:17:00.367Z,78.80
2018-09-22T05:19:28.518Z,80.30
2018-09-22T05:21:56.683Z,82.30
2018-09-22T05:24:25.436Z,84.40
2018-09-22T05:26:53.576Z,86.40
2018-09-22T05:29:21.683Z,87.20
2018-09-22T05:31:49.846Z,88.40
2018-09-22T05:34:18.025Z,89.60
2018-09-22T05:36:46.171Z,90.00
2018-09-22T05:39:14.312Z,90.50
2018-09-22T05:41:42.511Z,89.90
2018-09-22T05:44:10.927Z,90.50
2018-09-22T05:46:39.027Z,90.50
2018-09-22T05:49:07.248Z,90.30
2018-09-22T05:51:35.665Z,90.30
2018-09-22T05:54:03.797Z,90.10
2018-09-22T05:56:32.005Z,90.20
2018-09-22T05:59:00.244Z,89.70
2018-09-22T06:01:28.509Z,90.10
2018-09-22T06:03:56.779Z,89.80
2018-09-22T06:06:24.827Z,89.20
2018-09-22T06:08:52.961Z,88.80
2018-09-22T06:11:21.126Z,89.00
2018-09-22T06:13:49.300Z,89.40
2018-09-22T06:16:18.432Z,88.70
2018-09-22T06:18:46.631Z,88.90
2018-09-22T06:21:14.890Z,88.90
2018-09-22T06:23:42.995Z,89.50
2018-09-22T06:26:11.335Z,89.50
2018-09-22T06:28:39.448Z,90.00
2018-09-22T06:31:07.572Z,89.80
2018-09-22T06:33:35.664Z,89.70
2018-09-22T06:36:03.791Z,89.40
2018-09-22T06:38:31.907Z,88.80
2018-09-22T06:41:00.055Z,88.40
2018-09-22T06:43:28.176Z,87.50
2018-09-22T06:45:56.608Z,86.40
2018-09-22T06:48:24.782Z,86.70
2018-09-22T06:50:52.962Z,87.00
2018-09-22T06:53:21.131Z,86.90
2018-09-22T06:55:49.280Z,86.90
2018-09-22T06:58:17.527Z,86.80
2018-09-22T07:00:45.652Z,86.30
2018-09-22T07:03:14.031Z,85.50
2018-09-22T07:05:42.203Z,84.50
2018-09-22T07:08:10.362Z,84.10
2018-09-22T07:10:38.531Z,83.30
2018-09-22T07:13:06.631Z,82.00
2018-09-22T07:15:34.781Z,81.50
2018-09-22T07:18:03.234Z,82.20
2018-09-22T07:20:31.350Z,82.40
2018-09-22T07:23:04.731Z,81.90
2018-09-22T07:25:33.024Z,81.90
2018-09-22T07:28:01.244Z,81.30
2018-09-22T07:30:29.349Z,81.40
2018-09-22T07:33:04.198Z,81.50
2018-09-22T07:35:32.350Z,80.70
2018-09-22T07:38:00.591Z,79.30
2018-09-22T07:40:28.744Z,78.60
2018-09-22T07:42:56.865Z,78.60
2018-09-22T07:45:25.993Z,79.20
2018-09-22T07:47:54.252Z,78.30
2018-09-22T07:50:22.486Z,78.20
2018-09-22T07:52:50.623Z,77.90
2018-09-22T07:55:18.723Z,77.50
2018-09-22T07:57:46.824Z,76.80
2018-09-22T08:00:15.280Z,76.40
2018-09-22T08:02:43.428Z,76.20
2018-09-22T08:05:11.592Z,76.00
2018-09-22T08:07:39.769Z,76.30
2018-09-22T08:10:07.929Z,76.60
2018-09-22T08:12:36.076Z,76.80
2018-09-22T08:15:04.451Z,77.10
2018-09-22T08:17:32.594Z,76.80
2018-09-22T08:20:00.727Z,76.90
2018-09-22T08:22:28.886Z,76.50
2018-09-22T08:24:57.125Z,75.90
2018-09-22T08:27:25.248Z,75.40
2018-09-22T08:29:53.464Z,76.60
2018-09-22T08:32:21.588Z,75.60
2018-09-22T08:34:49.681Z,74.80
2018-09-22T08:37:17.989Z,75.10
2018-09-22T08:39:46.140Z,75.40
2018-09-22T08:42:14.573Z,75.70
2018-09-22T08:44:42.726Z,74.80
2018-09-22T08:47:10.850Z,74.30
2018-09-22T08:49:39.046Z,74.50
2018-09-22T08:52:07.130Z,73.70
2018-09-22T08:54:35.228Z,73.50
2018-09-22T08:57:03.373Z,72.00
2018-09-22T08:59:31.453Z,71.80
2018-09-22T09:01:59.584Z,71.80
2018-09-22T09:04:27.713Z,71.30
2018-09-22T09:06:55.812Z,71.00
2018-09-22T09:09:24.004Z,68.80
2018-09-22T09:11:52.104Z,69.60
2018-09-22T09:14:20.290Z,69.70
2018-09-22T09:16:48.412Z,68.50
2018-09-22T09:19:16.504Z,68.40
2018-09-22T09:21:44.648Z,66.70
2018-09-22T09:24:12.755Z,66.80
2018-09-22T09:26:40.868Z,66.80
2018-09-22T09:29:08.980Z,65.40
2018-09-22T09:31:37.121Z,64.70
2018-09-22T09:34:05.255Z,64.70
2018-09-22T09:36:33.367Z,63.80
2018-09-22T09:39:02.295Z,63.50
2018-09-22T09:41:30.465Z,64.40
2018-09-22T09:43:58.642Z,62.60
2018-09-22T09:46:26.807Z,61.90
2018-09-22T09:48:54.979Z,60.90
2018-09-22T09:51:23.218Z,61.60
2018-09-22T09:53:51.324Z,61.90
2018-09-22T09:56:19.906Z,61.80
2018-09-22T09:58:48.030Z,62.90
2018-09-22T10:01:16.249Z,63.50
2018-09-22T10:03:44.325Z,62.40
2018-09-22T10:06:12.496Z,62.40
2018-09-22T10:08:40.642Z,62.30
2018-09-22T10:11:08.733Z,62.10
2018-09-22T10:13:36.937Z,62.30
2018-09-22T10:16:05.088Z,61.80
2018-09-22T10:18:33.231Z,61.80
2018-09-22T10:21:01.346Z,62.30
2018-09-22T10:23:29.529Z,62.50
2018-09-22T10:25:57.669Z,62.30
2018-09-22T10:28:32.599Z,61.30
2018-09-22T10:31:00.784Z,61.50
2018-09-22T10:33:29.261Z,61.70
2018-09-22T10:35:57.358Z,62.60
2018-09-22T10:38:25.765Z,62.60
2018-09-22T10:40:53.902Z,61.90
2018-09-22T10:43:22.411Z,61.60
2018-09-22T10:45:50.510Z,59.90
2018-09-22T10:48:18.633Z,59.70
2018-09-22T10:50:46.744Z,59.40
2018-09-22T10:53:14.958Z,60.00
2018-09-22T10:55:43.079Z,59.90
2018-09-22T10:58:11.208Z,60.80
2018-09-22T11:00:39.303Z,61.50
2018-09-22T11:03:07.470Z,61.60
2018-09-22T11:05:35.588Z,61.70
2018-09-22T11:08:03.689Z,61.60
2018-09-22T11:10:31.832Z,60.80
2018-09-22T11:13:00.008Z,60.40
2018-09-22T11:15:28.118Z,60.10
2018-09-22T11:17:56.181Z,60.80
2018-09-22T11:20:24.326Z,60.80
2018-09-22T11:22:52.440Z,60.00
2018-09-22T11:25:20.647Z,59.60
2018-09-22T11:27:48.718Z,59.70
2018-09-22T11:30:16.971Z,58.80
2018-09-22T11:32:45.207Z,58.00
2018-09-22T11:35:16.470Z,57.40
2018-09-22T11:37:44.651Z,57.20
2018-09-22T11:40:12.793Z,57.00
2018-09-22T11:42:40.910Z,57.70
2018-09-22T11:45:09.099Z,58.50
2018-09-22T11:47:37.215Z,59.80
2018-09-22T11:50:05.524Z,63.80
2018-09-22T11:52:33.619Z,65.40
2018-09-22T11:55:01.768Z,65.00
2018-09-22T11:57:29.976Z,67.00
2018-09-22T11:59:58.142Z,66.80
2018-09-22T12:02:26.256Z,62.30
2018-09-22T12:04:54.378Z,60.90
2018-09-22T12:07:22.500Z,58.70
2018-09-22T12:09:50.630Z,59.40
2018-09-22T12:12:18.759Z,58.30
2018-09-22T12:14:46.850Z,57.70
2018-09-22T12:17:14.965Z,57.00
2018-09-22T12:19:43.153Z,56.70
2018-09-22T12:22:11.299Z,56.80
2018-09-22T12:24:39.446Z,57.20
2018-09-22T12:27:07.578Z,57.10
2018-09-22T12:29:35.838Z,57.70
2018-09-22T12:32:04.463Z,57.60
2018-09-22T12:34:32.531Z,57.60
2018-09-22T12:37:00.683Z,56.70
2018-09-22T12:39:28.822Z,55.90
2018-09-22T12:41:56.936Z,54.90
2018-09-22T12:44:25.008Z,54.80
2018-09-22T12:46:53.123Z,54.30
2018-09-22T12:49:21.289Z,54.30
2018-09-22T12:51:49.354Z,54.20
2018-09-22T12:54:17.473Z,51.80
2018-09-22T12:56:45.584Z,50.90
2018-09-22T12:59:13.691Z,50.20
2018-09-22T13:01:41.831Z,50.60
2018-09-22T13:04:09.986Z,51.90
2018-09-22T13:06:38.194Z,50.80
2018-09-22T13:09:08.068Z,49.50
2018-09-22T13:11:36.262Z,49.80
2018-09-22T13:14:04.536Z,48.90
2018-09-22T13:16:33.067Z,49.50
2018-09-22T13:19:01.184Z,49.50
2018-09-22T13:21:29.282Z,49.20
2018-09-22T13:23:57.509Z,49.00
2018-09-22T13:26:25.692Z,49.50
2018-09-22T13:28:53.946Z,49.30
2018-09-22T13:31:22.125Z,49.50
2018-09-22T13:33:50.241Z,48.40
2018-09-22T13:36:18.453Z,47.60
2018-09-22T13:38:46.658Z,47.20
2018-09-22T13:41:14.763Z,46.70
2018-09-22T13:43:42.896Z,46.30
2018-09-22T13:46:11.061Z,46.30
2018-09-22T13:48:39.181Z,46.50
2018-09-22T13:51:07.487Z,46.80
2018-09-22T13:53:35.652Z,47.00
2018-09-22T13:56:03.812Z,46.80
2018-09-22T13:58:31.950Z,47.00
2018-09-22T14:01:00.041Z,47.00
2018-09-22T14:03:28.238Z,47.00
2018-09-22T14:05:56.411Z,46.80
2018-09-22T14:08:24.811Z,46.40
2018-09-22T14:10:53.074Z,46.50
2018-09-22T14:13:21.244Z,47.20
2018-09-22T14:15:49.911Z,47.00
2018-09-22T14:18:18.015Z,46.20
2018-09-22T14:20:46.149Z,45.90
2018-09-22T14:23:14.327Z,45.70
2018-09-22T14:25:42.516Z,46.40
2018-09-22T14:28:10.742Z,46.50
2018-09-22T14:30:38.845Z,46.90
2018-09-22T14:33:07.031Z,47.00
2018-09-22T14:35:35.211Z,47.60
2018-09-22T14:38:03.670Z,47.60
2018-09-22T14:40:31.885Z,47.10
2018-09-22T14:42:59.966Z,46.80
2018-09-22T14:45:28.118Z,47.00
2018-09-22T14:47:56.600Z,47.20
2018-09-22T14:50:24.770Z,47.20
2018-09-22T14:52:52.923Z,46.80
2018-09-22T14:55:21.002Z,46.80
2018-09-22T14:57:49.174Z,47.00
2018-09-22T15:00:17.324Z,47.00
2018-09-22T15:02:45.476Z,46.40
2018-09-22T15:05:13.587Z,46.80
2018-09-22T15:07:41.756Z,46.50
2018-09-22T15:10:09.894Z,46.50
2018-09-22T15:12:38.802Z,45.60
2018-09-22T15:15:06.906Z,44.80
2018-09-22T15:17:35.064Z,45.20
2018-09-22T15:20:03.249Z,45.20
2018-09-22T15:22:31.455Z,45.30
2018-09-22T15:24:59.591Z,45.40
2018-09-22T15:27:27.753Z,45.70
2018-09-22T15:29:55.954Z,45.40
2018-09-22T15:32:24.150Z,45.50
2018-09-22T15:34:52.282Z,45.60
2018-09-22T15:37:20.402Z,45.70
2018-09-22T15:39:48.535Z,45.50
2018-09-22T15:42:16.679Z,45.60
2018-09-22T15:44:44.789Z,45.60
2018-09-22T15:47:12.904Z,45.70
2018-09-22T15:49:41.013Z,45.80
2018-09-22T15:52:09.198Z,45.70
2018-09-22T15:54:37.543Z,45.60
2018-09-22T15:57:05.738Z,45.70
2018-09-22T15:59:34.244Z,45.90
2018-09-22T16:02:02.459Z,46.20
2018-09-22T16:04:30.580Z,46.50
2018-09-22T16:06:58.748Z,46.70
2018-09-22T16:09:26.860Z,47.30
2018-09-22T16:11:55.504Z,47.10
2018-09-22T16:14:23.609Z,47.10
2018-09-22T16:16:51.740Z,47.30
2018-09-22T16:19:19.833Z,47.30
2018-09-22T16:21:47.999Z,47.10
2018-09-22T16:24:16.062Z,47.20
2018-09-22T16:26:44.248Z,47.30
2018-09-22T16:29:12.483Z,47.60
2018-09-22T16:31:40.587Z,47.70
2018-09-22T16:34:09.164Z,47.90
2018-09-22T16:36:37.430Z,47.80
2018-09-22T16:39:06.940Z,48.10
2018-09-22T16:41:35.175Z,48.30
2018-09-22T16:44:03.457Z,48.60
2018-09-22T16:46:31.670Z,48.90
2018-09-22T16:49:00.099Z,49.20
2018-09-22T16:51:28.122Z,49.60
2018-09-22T16:53:56.257Z,49.80
2018-09-22T16:56:24.460Z,49.70
2018-09-22T16:58:52.611Z,49.90
2018-09-22T17:01:20.710Z,50.10
2018-09-22T17:03:48.848Z,50.30
2018-09-22T17:06:16.955Z,50.50
2018-09-22T17:08:45.179Z,50.50
2018-09-22T17:11:13.396Z,50.60
2018-09-22T17:13:41.483Z,50.80
2018-09-22T17:16:09.783Z,50.90
2018-09-22T17:18:37.931Z,51.20
2018-09-22T17:21:06.203Z,51.30
2018-09-22T17:23:34.628Z,51.50
2018-09-22T17:26:02.795Z,51.70
2018-09-22T17:28:30.959Z,51.70
2018-09-22T17:30:59.068Z,51.70
2018-09-22T17:33:27.267Z,51.90
2018-09-22T17:35:55.495Z,52.20
2018-09-22T17:38:23.620Z,52.30
2018-09-22T17:40:51.702Z,52.50
2018-09-22T17:43:19.870Z,52.60
2018-09-22T17:45:48.036Z,52.90
2018-09-22T17:48:16.206Z,53.00
2018-09-22T17:50:44.482Z,53.30
2018-09-22T17:53:12.679Z,53.40
2018-09-22T17:55:40.985Z,53.50
2018-09-22T17:58:09.107Z,53.50
2018-09-22T18:00:37.289Z,53.60
2018-09-22T18:03:05.560Z,52.70
2018-09-22T18:05:33.963Z,53.50
2018-09-22T18:08:02.101Z,53.70
2018-09-22T18:10:30.236Z,53.70
2018-09-22T18:12:58.418Z,53.70
2018-09-22T18:15:26.536Z,53.80
2018-09-22T18:17:54.706Z,53.60
2018-09-22T18:20:22.811Z,53.80
2018-09-22T18:22:50.923Z,53.80
2018-09-22T18:25:19.128Z,54.00
2018-09-22T18:27:47.214Z,54.10
2018-09-22T18:30:15.366Z,54.20
2018-09-22T18:32:43.461Z,54.10
2018-09-22T18:35:11.592Z,54.30
2018-09-22T18:37:39.697Z,54.30
2018-09-22T18:40:07.878Z,54.90
2018-09-22T18:42:35.907Z,55.00
2018-09-22T18:45:04.660Z,55.80
2018-09-22T18:47:32.770Z,56.20
2018-09-22T18:50:00.883Z,56.70
2018-09-22T18:52:29.084Z,57.00
2018-09-22T18:54:57.199Z,57.30
2018-09-22T18:57:25.362Z,57.80
2018-09-22T18:59:53.477Z,58.20
2018-09-22T19:02:21.560Z,58.80
2018-09-22T19:04:49.707Z,58.90
2018-09-22T19:07:17.819Z,59.20
2018-09-22T19:09:45.997Z,59.50
2018-09-22T19:12:14.110Z,59.10
2018-09-22T19:14:47.694Z,60.00
2018-09-22T19:17:25.723Z,59.60
2018-09-22T19:19:57.802Z,59.70
2018-09-22T19:22:38.740Z,60.70
2018-09-22T19:25:09.404Z,60.70
2018-09-22T19:27:44.074Z,61.20
2018-09-22T19:30:17.823Z,61.80
2018-09-22T19:32:52.956Z,62.80
2018-09-22T19:35:24.863Z,63.70
2018-09-22T19:37:55.690Z,64.20
2018-09-22T19:40:36.065Z,64.60
2018-09-22T19:43:08.668Z,64.60
2018-09-22T19:45:41.176Z,64.70
2018-09-22T19:48:15.802Z,65.00
2018-09-22T19:50:46.963Z,65.10
2018-09-22T19:53:15.397Z,65.30
2018-09-22T19:55:43.494Z,65.40
2018-09-22T19:58:11.618Z,65.90
2018-09-22T20:00:39.803Z,66.00
2018-09-22T20:03:07.939Z,66.20
2018-09-22T20:05:36.075Z,66.40
2018-09-22T20:08:04.672Z,66.70
2018-09-22T20:10:34.353Z,66.90
2018-09-22T20:13:03.193Z,67.10
2018-09-22T20:15:31.495Z,67.40
2018-09-22T20:18:00.119Z,67.90
2018-09-22T20:20:28.326Z,68.30
2018-09-22T20:22:56.469Z,68.70
2018-09-22T20:25:24.703Z,69.40
2018-09-22T20:27:52.852Z,70.00
2018-09-22T20:30:21.026Z,70.90
2018-09-22T20:32:49.138Z,71.30
2018-09-22T20:35:17.256Z,71.40
2018-09-22T20:37:45.425Z,72.60
2018-09-22T20:40:13.588Z,73.20
2018-09-22T20:42:41.930Z,74.70
2018-09-22T20:45:10.111Z,75.10
2018-09-22T20:47:39.424Z,76.00
2018-09-22T20:50:07.654Z,75.10
2018-09-22T20:52:35.796Z,75.40
2018-09-22T20:55:03.871Z,75.30
2018-09-22T20:57:32.011Z,74.90
2018-09-22T21:00:00.101Z,75.50
2018-09-22T21:02:28.260Z,75.70
2018-09-22T21:04:56.377Z,75.50
2018-09-22T21:07:24.508Z,75.40
2018-09-22T21:09:52.662Z,75.20
2018-09-22T21:12:20.849Z,75.20
2018-09-22T21:14:49.015Z,75.40
2018-09-22T21:17:17.174Z,75.60
2018-09-22T21:19:45.362Z,75.40
2018-09-22T21:22:13.485Z,74.70
2018-09-22T21:24:41.622Z,74.80
2018-09-22T21:27:09.837Z,75.10
2018-09-22T21:29:38.166Z,75.30
2018-09-22T21:32:06.372Z,75.10
2018-09-22T21:34:34.457Z,75.60
2018-09-22T21:37:02.545Z,75.60
2018-09-22T21:39:30.664Z,75.60
2018-09-22T21:41:58.906Z,75.60
2018-09-22T21:44:26.977Z,76.30
2018-09-22T21:46:55.082Z,76.80
2018-09-22T21:49:23.223Z,77.30
2018-09-22T21:51:51.384Z,78.20
2018-09-22T21:54:19.500Z,79.60
2018-09-22T21:56:47.665Z,80.50
2018-09-22T21:59:15.744Z,82.00
2018-09-22T22:01:43.860Z,82.50
2018-09-22T22:04:12.348Z,83.70
2018-09-22T22:06:40.438Z,84.20
2018-09-22T22:09:10.835Z,85.50
2018-09-22T22:11:39.092Z,85.80
2018-09-22T22:14:07.594Z,86.80
2018-09-22T22:16:35.812Z,87.90
2018-09-22T22:19:03.922Z,88.90
2018-09-22T22:21:32.277Z,89.00
2018-09-22T22:24:00.354Z,88.60
2018-09-22T22:26:28.533Z,89.70
2018-09-22T22:28:56.659Z,90.00
2018-09-22T22:31:24.803Z,90.50
2018-09-22T22:33:53.164Z,90.20
2018-09-22T22:36:21.701Z,90.40
2018-09-22T22:38:49.884Z,90.30
2018-09-22T22:41:18.122Z,90.20
2018-09-22T22:43:46.356Z,90.30
2018-09-22T22:46:14.883Z,90.10
2018-09-22T22:48:43.442Z,90.50
2018-09-22T22:51:11.541Z,90.60
2018-09-22T22:53:39.668Z,90.50
2018-09-22T22:56:07.766Z,90.70
2018-09-22T22:58:35.883Z,90.70
2018-09-22T23:01:04.137Z,90.60
2018-09-22T23:03:32.216Z,90.80
2018-09-22T23:06:00.279Z,90.30
2018-09-22T23:08:28.418Z,90.70
2018-09-22T23:10:56.546Z,90.70
2018-09-22T23:13:24.738Z,90.70
2018-09-22T23:15:52.916Z,90.80
2018-09-22T23:18:21.060Z,90.60
2018-09-22T23:20:49.219Z,91.00
2018-09-22T23:23:17.328Z,91.00
2018-09-22T23:25:45.484Z,91.20
2018-09-22T23:28:13.716Z,91.40
2018-09-22T23:30:41.878Z,91.70
2018-09-22T23:33:10.004Z,91.90
2018-09-22T23:35:38.102Z,91.70
2018-09-22T23:38:06.330Z,91.90
2018-09-22T23:40:34.441Z,92.60
2018-09-22T23:43:02.773Z,92.20
2018-09-22T23:45:30.860Z,92.10
2018-09-22T23:47:58.982Z,92.00
2018-09-22T23:50:27.103Z,91.60
2018-09-22T23:52:55.263Z,91.90
2018-09-22T23:55:23.420Z,92.10
2018-09-22T23:57:51.664Z,92.40
